createdAt,value
2018-08-10T00:00:05.024Z,17.95
2018-08-10T00:01:13.934Z,17.93
2018-08-10T00:02:22.583Z,17.91
2018-08-10T00:03:31.236Z,17.79
2018-08-10T00:04:40.139Z,17.76
2018-08-10T00:05:48.788Z,17.72
2018-08-10T00:06:57.696Z,17.78
2018-08-10T00:08:06.345Z,17.68
2018-08-10T00:09:15.258Z,17.72
2018-08-10T00:10:23.904Z,17.65
2018-08-10T00:11:32.545Z,17.57
2018-08-10T00:12:41.190Z,17.63
2018-08-10T00:13:49.844Z,17.59
2018-08-10T00:14:58.748Z,17.68
2018-08-10T00:16:07.397Z,17.57
2018-08-10T00:17:16.033Z,17.56
2018-08-10T00:18:24.959Z,17.59
2018-08-10T00:19:33.596Z,17.57
2018-08-10T00:20:42.244Z,17.57
2018-08-10T00:21:50.881Z,17.57
2018-08-10T00:22:59.536Z,17.63
2018-08-10T00:24:08.181Z,17.69
2018-08-10T00:25:16.828Z,17.65
2018-08-10T00:26:25.989Z,17.63
2018-08-10T00:27:34.640Z,17.53
2018-08-10T00:28:43.286Z,17.57
2018-08-10T00:29:51.932Z,17.56
2018-08-10T00:31:00.579Z,17.5
2018-08-10T00:32:09.215Z,17.53
2018-08-10T00:33:17.866Z,17.54
2018-08-10T00:34:26.505Z,17.54
2018-08-10T00:35:35.159Z,17.6
2018-08-10T00:36:43.795Z,17.53
2018-08-10T00:37:52.446Z,17.53
2018-08-10T00:39:01.085Z,17.53
2018-08-10T00:40:09.738Z,17.54
2018-08-10T00:41:18.372Z,17.56
2018-08-10T00:42:27.020Z,17.54
2018-08-10T00:43:35.666Z,17.59
2018-08-10T00:44:44.316Z,17.49
2018-08-10T00:45:53.221Z,17.5
2018-08-10T00:47:01.862Z,17.5
2018-08-10T00:48:10.508Z,17.54
2018-08-10T00:49:19.416Z,17.39
2018-08-10T00:50:28.071Z,17.42
2018-08-10T00:51:36.969Z,17.47
2018-08-10T00:52:45.881Z,17.44
2018-08-10T00:53:54.514Z,17.53
2018-08-10T00:55:03.171Z,17.42
2018-08-10T00:56:12.073Z,17.41
2018-08-10T00:57:20.723Z,17.37
2018-08-10T00:58:29.361Z,17.38
2018-08-10T00:59:38.014Z,17.31
2018-08-10T01:00:46.657Z,17.37
2018-08-10T01:01:55.305Z,17.28
2018-08-10T01:03:03.945Z,17.31
2018-08-10T01:04:12.589Z,17.27
2018-08-10T01:05:21.240Z,17.31
2018-08-10T01:06:30.162Z,17.31
2018-08-10T01:07:38.807Z,17.22
2018-08-10T01:08:47.445Z,17.12
2018-08-10T01:09:56.094Z,17.16
2018-08-10T01:11:04.736Z,17.2
2018-08-10T01:12:13.655Z,17.17
2018-08-10T01:13:22.406Z,17.14
2018-08-10T01:14:30.938Z,17.16
2018-08-10T01:15:39.587Z,17.13
2018-08-10T01:16:48.249Z,17.12
2018-08-10T01:17:56.889Z,17.07
2018-08-10T01:19:05.581Z,17.09
2018-08-10T01:20:14.571Z,17.1
2018-08-10T01:21:23.222Z,17.05
2018-08-10T01:22:31.865Z,17.05
2018-08-10T01:23:40.771Z,17.02
2018-08-10T01:24:49.421Z,17.02
2018-08-10T01:25:58.068Z,17.04
2018-08-10T01:27:06.719Z,17.04
2018-08-10T01:28:15.699Z,17.01
2018-08-10T01:29:24.337Z,16.99
2018-08-10T01:30:32.976Z,17.01
2018-08-10T01:31:41.633Z,16.97
2018-08-10T01:32:50.277Z,16.98
2018-08-10T01:33:58.920Z,16.99
2018-08-10T01:35:07.562Z,16.99
2018-08-10T01:36:16.474Z,17.01
2018-08-10T01:37:25.117Z,16.98
2018-08-10T01:38:34.022Z,16.97
2018-08-10T01:39:42.657Z,16.92
2018-08-10T01:40:51.305Z,16.94
2018-08-10T01:41:59.950Z,16.95
2018-08-10T01:43:08.605Z,16.92
2018-08-10T01:44:17.787Z,16.95
2018-08-10T01:45:26.687Z,16.95
2018-08-10T01:46:35.337Z,16.92
2018-08-10T01:47:43.980Z,16.98
2018-08-10T01:48:52.630Z,16.97
2018-08-10T01:50:01.270Z,16.98
2018-08-10T01:51:09.916Z,16.98
2018-08-10T01:52:18.563Z,16.98
2018-08-10T01:53:27.212Z,16.95
2018-08-10T01:54:35.851Z,16.97
2018-08-10T01:55:44.499Z,16.89
2018-08-10T01:56:53.140Z,16.83
2018-08-10T01:58:01.789Z,16.92
2018-08-10T01:59:10.430Z,16.84
2018-08-10T02:00:19.080Z,16.84
2018-08-10T02:01:27.719Z,16.91
2018-08-10T02:02:36.362Z,16.73
2018-08-10T02:03:45.013Z,16.68
2018-08-10T02:04:53.659Z,16.77
2018-08-10T02:06:02.300Z,16.8
2018-08-10T02:07:10.940Z,16.69
2018-08-10T02:08:19.590Z,16.62
2018-08-10T02:09:28.234Z,16.62
2018-08-10T02:10:36.877Z,16.65
2018-08-10T02:11:45.525Z,16.61
2018-08-10T02:12:54.687Z,16.66
2018-08-10T02:14:03.335Z,16.74
2018-08-10T02:15:11.977Z,16.65
2018-08-10T02:16:20.626Z,16.64
2018-08-10T02:17:29.268Z,16.69
2018-08-10T02:18:37.913Z,16.62
2018-08-10T02:19:46.554Z,16.64
2018-08-10T02:20:55.197Z,16.72
2018-08-10T02:22:03.846Z,16.72
2018-08-10T02:23:12.491Z,16.65
2018-08-10T02:24:21.137Z,16.73
2018-08-10T02:25:29.774Z,16.72
2018-08-10T02:26:38.424Z,16.64
2018-08-10T02:27:47.335Z,16.79
2018-08-10T02:28:55.982Z,16.69
2018-08-10T02:30:04.622Z,16.68
2018-08-10T02:31:14.063Z,16.68
2018-08-10T02:32:22.712Z,16.57
2018-08-10T02:33:31.659Z,16.58
2018-08-10T02:34:40.298Z,16.44
2018-08-10T02:35:49.228Z,16.44
2018-08-10T02:36:57.872Z,16.41
2018-08-10T02:38:06.519Z,16.41
2018-08-10T02:39:15.169Z,16.31
2018-08-10T02:40:23.812Z,16.28
2018-08-10T02:41:32.455Z,16.31
2018-08-10T02:42:41.103Z,16.32
2018-08-10T02:43:50.017Z,16.36
2018-08-10T02:44:58.652Z,16.37
2018-08-10T02:46:07.561Z,16.36
2018-08-10T02:47:16.207Z,16.39
2018-08-10T02:48:24.856Z,16.26
2018-08-10T02:49:33.500Z,16.32
2018-08-10T02:50:42.421Z,16.37
2018-08-10T02:51:51.109Z,16.28
2018-08-10T02:52:59.717Z,16.31
2018-08-10T02:54:08.360Z,16.22
2018-08-10T02:55:17.006Z,16.26
2018-08-10T02:56:25.649Z,16.26
2018-08-10T02:57:34.299Z,16.24
2018-08-10T02:58:42.951Z,16.25
2018-08-10T02:59:51.596Z,16.18
2018-08-10T03:01:00.253Z,16.25
2018-08-10T03:02:09.157Z,16.24
2018-08-10T03:03:18.339Z,16.28
2018-08-10T03:04:26.982Z,16.18
2018-08-10T03:05:35.640Z,16.28
2018-08-10T03:06:44.813Z,16.26
2018-08-10T03:07:53.462Z,16.26
2018-08-10T03:09:02.381Z,16.21
2018-08-10T03:10:11.034Z,16.32
2018-08-10T03:11:19.938Z,16.25
2018-08-10T03:12:28.849Z,16.26
2018-08-10T03:13:37.515Z,16.24
2018-08-10T03:14:46.687Z,16.24
2018-08-10T03:15:55.344Z,16.12
2018-08-10T03:17:03.988Z,16.16
2018-08-10T03:18:12.638Z,16.12
2018-08-10T03:19:21.548Z,16.24
2018-08-10T03:20:30.199Z,16.13
2018-08-10T03:21:38.836Z,16.12
2018-08-10T03:22:47.488Z,16.09
2018-08-10T03:23:56.128Z,16.13
2018-08-10T03:25:04.786Z,16.02
2018-08-10T03:26:13.435Z,16.09
2018-08-10T03:27:22.350Z,15.98
2018-08-10T03:28:31.258Z,15.92
2018-08-10T03:29:39.914Z,15.92
2018-08-10T03:30:48.831Z,15.88
2018-08-10T03:31:57.479Z,15.85
2018-08-10T03:33:06.394Z,15.81
2018-08-10T03:34:15.299Z,15.78
2018-08-10T03:35:23.956Z,15.69
2018-08-10T03:36:32.596Z,15.62
2018-08-10T03:37:41.243Z,15.66
2018-08-10T03:38:49.877Z,15.65
2018-08-10T03:39:58.531Z,15.59
2018-08-10T03:41:07.172Z,15.6
2018-08-10T03:42:15.824Z,15.52
2018-08-10T03:43:24.988Z,15.48
2018-08-10T03:44:33.646Z,15.48
2018-08-10T03:45:42.550Z,15.51
2018-08-10T03:46:51.200Z,15.59
2018-08-10T03:48:00.099Z,15.47
2018-08-10T03:49:08.745Z,15.51
2018-08-10T03:50:17.394Z,15.55
2018-08-10T03:51:26.040Z,15.55
2018-08-10T03:52:34.948Z,15.54
2018-08-10T03:53:43.847Z,15.52
2018-08-10T03:54:52.498Z,15.44
2018-08-10T03:56:01.402Z,15.51
2018-08-10T03:57:10.051Z,15.6
2018-08-10T03:58:18.685Z,15.51
2018-08-10T03:59:27.334Z,15.52
2018-08-10T04:00:35.975Z,15.55
2018-08-10T04:01:44.892Z,15.48
2018-08-10T04:02:53.526Z,15.52
2018-08-10T04:04:02.169Z,15.62
2018-08-10T04:05:10.821Z,15.47
2018-08-10T04:06:19.475Z,15.43
2018-08-10T04:07:28.117Z,15.45
2018-08-10T04:08:37.022Z,15.44
2018-08-10T04:09:45.673Z,15.39
2018-08-10T04:10:54.314Z,15.26
2018-08-10T04:12:03.216Z,15.3
2018-08-10T04:13:12.164Z,15.29
2018-08-10T04:14:20.808Z,15.26
2018-08-10T04:15:29.456Z,15.23
2018-08-10T04:16:38.096Z,15.18
2018-08-10T04:17:46.739Z,15.15
2018-08-10T04:18:55.383Z,15.15
2018-08-10T04:20:04.034Z,15.12
2018-08-10T04:21:12.679Z,15.15
2018-08-10T04:22:21.593Z,15.14
2018-08-10T04:23:30.247Z,15
2018-08-10T04:24:38.891Z,15.12
2018-08-10T04:25:47.530Z,15.1
2018-08-10T04:26:56.177Z,15.11
2018-08-10T04:28:05.080Z,15.12
2018-08-10T04:29:13.987Z,15.12
2018-08-10T04:30:22.898Z,15.11
2018-08-10T04:31:31.540Z,15.04
2018-08-10T04:32:40.186Z,15.1
2018-08-10T04:33:48.862Z,15
2018-08-10T04:34:57.480Z,15.08
2018-08-10T04:36:06.381Z,15.05
2018-08-10T04:37:15.027Z,15.05
2018-08-10T04:38:23.713Z,15.07
2018-08-10T04:39:32.313Z,15.05
2018-08-10T04:40:40.961Z,15
2018-08-10T04:41:49.607Z,15.05
2018-08-10T04:42:58.248Z,15
2018-08-10T04:44:06.894Z,15
2018-08-10T04:45:15.538Z,15.04
2018-08-10T04:46:24.185Z,14.96
2018-08-10T04:47:33.096Z,15.04
2018-08-10T04:48:41.735Z,14.99
2018-08-10T04:49:50.382Z,14.92
2018-08-10T04:50:59.028Z,14.94
2018-08-10T04:52:07.676Z,14.92
2018-08-10T04:53:16.315Z,15.02
2018-08-10T04:54:24.957Z,14.97
2018-08-10T04:55:34.077Z,14.99
2018-08-10T04:56:42.658Z,14.96
2018-08-10T04:57:51.298Z,15.02
2018-08-10T04:58:59.944Z,15.04
2018-08-10T05:00:08.585Z,15.05
2018-08-10T05:01:17.239Z,15.07
2018-08-10T05:02:26.144Z,15.05
2018-08-10T05:03:34.817Z,15
2018-08-10T05:04:43.431Z,15.02
2018-08-10T05:05:52.335Z,15.02
2018-08-10T05:07:00.984Z,15.02
2018-08-10T05:08:09.623Z,15.02
2018-08-10T05:09:18.276Z,15.04
2018-08-10T05:10:26.910Z,15.12
2018-08-10T05:11:35.564Z,15.05
2018-08-10T05:12:44.202Z,15.05
2018-08-10T05:13:52.851Z,15.18
2018-08-10T05:15:01.483Z,15.07
2018-08-10T05:16:10.402Z,15.12
2018-08-10T05:17:19.042Z,15.15
2018-08-10T05:18:27.687Z,15.19
2018-08-10T05:19:36.323Z,15.14
2018-08-10T05:20:44.970Z,15.22
2018-08-10T05:21:53.888Z,15.25
2018-08-10T05:23:02.535Z,15.25
2018-08-10T05:24:11.181Z,15.25
2018-08-10T05:25:19.816Z,15.26
2018-08-10T05:26:28.464Z,15.26
2018-08-10T05:27:37.102Z,15.27
2018-08-10T05:28:45.758Z,15.33
2018-08-10T05:29:54.661Z,15.37
2018-08-10T05:31:03.310Z,15.41
2018-08-10T05:32:11.951Z,15.43
2018-08-10T05:33:20.608Z,15.45
2018-08-10T05:34:29.503Z,15.47
2018-08-10T05:35:38.150Z,15.55
2018-08-10T05:36:46.793Z,15.51
2018-08-10T05:37:55.714Z,15.59
2018-08-10T05:39:04.356Z,15.59
2018-08-10T05:40:12.998Z,15.52
2018-08-10T05:41:21.639Z,15.54
2018-08-10T05:42:30.281Z,15.6
2018-08-10T05:43:38.935Z,15.62
2018-08-10T05:44:47.582Z,15.65
2018-08-10T05:45:56.494Z,15.66
2018-08-10T05:47:05.160Z,15.63
2018-08-10T05:48:13.784Z,15.65
2018-08-10T05:49:22.423Z,15.72
2018-08-10T05:50:31.335Z,15.87
2018-08-10T05:51:39.974Z,15.84
2018-08-10T05:52:48.620Z,15.75
2018-08-10T05:53:57.267Z,15.76
2018-08-10T05:55:05.907Z,15.85
2018-08-10T05:56:14.545Z,15.85
2018-08-10T05:57:23.194Z,15.88
2018-08-10T05:58:31.839Z,15.92
2018-08-10T05:59:40.489Z,15.94
2018-08-10T06:00:49.911Z,15.94
2018-08-10T06:01:58.422Z,16
2018-08-10T06:03:07.068Z,15.99
2018-08-10T06:04:15.709Z,16.08
2018-08-10T06:05:24.367Z,16.1
2018-08-10T06:06:33.005Z,16.21
2018-08-10T06:07:41.901Z,16.13
2018-08-10T06:08:50.550Z,16.17
2018-08-10T06:09:59.184Z,16.16
2018-08-10T06:11:07.838Z,16.16
2018-08-10T06:12:16.747Z,16.22
2018-08-10T06:13:25.393Z,16.24
2018-08-10T06:14:34.029Z,16.22
2018-08-10T06:15:42.678Z,16.37
2018-08-10T06:16:51.326Z,16.39
2018-08-10T06:17:59.974Z,16.39
2018-08-10T06:19:08.617Z,16.41
2018-08-10T06:20:17.253Z,16.46
2018-08-10T06:21:25.906Z,16.49
2018-08-10T06:22:34.546Z,16.55
2018-08-10T06:23:43.200Z,16.58
2018-08-10T06:24:51.838Z,16.55
2018-08-10T06:26:00.484Z,16.58
2018-08-10T06:27:09.121Z,16.66
2018-08-10T06:28:17.806Z,16.57
2018-08-10T06:29:27.383Z,16.73
2018-08-10T06:30:36.032Z,16.69
2018-08-10T06:31:44.675Z,16.8
2018-08-10T06:32:53.334Z,16.76
2018-08-10T06:34:02.853Z,16.83
2018-08-10T06:35:11.661Z,16.83
2018-08-10T06:36:20.303Z,16.89
2018-08-10T06:37:28.942Z,16.84
2018-08-10T06:38:37.596Z,16.79
2018-08-10T06:39:46.295Z,16.82
2018-08-10T06:40:54.891Z,16.86
2018-08-10T06:42:03.523Z,16.94
2018-08-10T06:43:12.457Z,16.83
2018-08-10T06:44:21.099Z,16.87
2018-08-10T06:45:29.753Z,16.94
2018-08-10T06:46:38.390Z,16.91
2018-08-10T06:47:47.046Z,17.01
2018-08-10T06:48:55.694Z,17.04
2018-08-10T06:50:04.349Z,17.04
2018-08-10T06:51:13.385Z,17.12
2018-08-10T06:52:22.790Z,17.04
2018-08-10T06:53:31.441Z,17.09
2018-08-10T06:54:40.090Z,17.19
2018-08-10T06:55:48.849Z,17.17
2018-08-10T06:56:57.409Z,17.24
2018-08-10T06:58:06.023Z,17.23
2018-08-10T06:59:14.665Z,17.24
2018-08-10T07:00:23.874Z,17.31
2018-08-10T07:01:32.525Z,17.37
2018-08-10T07:02:41.146Z,17.38
2018-08-10T07:03:49.790Z,17.42
2018-08-10T07:04:58.436Z,17.5
2018-08-10T07:06:07.079Z,17.53
2018-08-10T07:07:15.726Z,17.47
2018-08-10T07:08:24.375Z,17.53
2018-08-10T07:09:33.021Z,17.53
2018-08-10T07:10:41.924Z,17.63
2018-08-10T07:11:50.569Z,17.56
2018-08-10T07:12:59.821Z,17.76
2018-08-10T07:14:08.468Z,17.78
2018-08-10T07:15:17.380Z,17.75
2018-08-10T07:16:26.021Z,17.78
2018-08-10T07:17:34.672Z,17.82
2018-08-10T07:18:43.573Z,17.79
2018-08-10T07:19:52.225Z,17.88
2018-08-10T07:21:00.872Z,17.87
2018-08-10T07:22:09.522Z,17.94
2018-08-10T07:23:18.158Z,17.95
2018-08-10T07:24:26.810Z,18.06
2018-08-10T07:25:35.979Z,18.12
2018-08-10T07:26:44.627Z,18.12
2018-08-10T07:27:53.802Z,18.19
2018-08-10T07:29:02.445Z,18.15
2018-08-10T07:30:11.092Z,18.19
2018-08-10T07:31:19.741Z,18.27
2018-08-10T07:32:28.658Z,18.21
2018-08-10T07:33:37.298Z,18.21
2018-08-10T07:34:45.944Z,18.24
2018-08-10T07:35:54.590Z,18.13
2018-08-10T07:37:03.242Z,18.18
2018-08-10T07:38:11.880Z,18.24
2018-08-10T07:39:20.529Z,18.21
2018-08-10T07:40:29.177Z,18.26
2018-08-10T07:41:38.088Z,18.24
2018-08-10T07:42:46.728Z,18.31
2018-08-10T07:43:55.377Z,18.26
2018-08-10T07:45:04.288Z,18.3
2018-08-10T07:46:12.936Z,18.33
2018-08-10T07:47:21.589Z,18.24
2018-08-10T07:48:30.233Z,18.3
2018-08-10T07:49:38.876Z,18.36
2018-08-10T07:50:47.790Z,18.24
2018-08-10T07:51:56.442Z,18.28
2018-08-10T07:53:05.092Z,18.48
2018-08-10T07:54:13.740Z,18.42
2018-08-10T07:55:22.385Z,18.58
2018-08-10T07:56:31.299Z,18.57
2018-08-10T07:57:39.944Z,18.67
2018-08-10T07:58:48.591Z,18.74
2018-08-10T07:59:57.238Z,18.88
2018-08-10T08:01:05.889Z,18.88
2018-08-10T08:02:14.795Z,18.97
2018-08-10T08:03:23.514Z,19
2018-08-10T08:04:32.086Z,18.98
2018-08-10T08:05:40.734Z,19.08
2018-08-10T08:06:49.392Z,19.04
2018-08-10T08:07:58.319Z,19.08
2018-08-10T08:09:06.956Z,18.94
2018-08-10T08:10:15.596Z,19.11
2018-08-10T08:11:24.253Z,19.15
2018-08-10T08:12:32.894Z,19.27
2018-08-10T08:13:41.579Z,19.34
2018-08-10T08:14:50.186Z,19.42
2018-08-10T08:15:58.837Z,19.48
2018-08-10T08:17:07.485Z,19.49
2018-08-10T08:18:16.138Z,19.47
2018-08-10T08:19:24.784Z,19.47
2018-08-10T08:20:33.433Z,19.48
2018-08-10T08:21:42.077Z,19.39
2018-08-10T08:22:50.734Z,19.53
2018-08-10T08:23:59.377Z,19.49
2018-08-10T08:25:08.023Z,19.62
2018-08-10T08:26:16.664Z,19.66
2018-08-10T08:27:25.310Z,19.72
2018-08-10T08:28:33.968Z,19.66
2018-08-10T08:29:42.608Z,19.72
2018-08-10T08:30:51.264Z,19.82
2018-08-10T08:32:00.163Z,19.81
2018-08-10T08:33:08.821Z,19.75
2018-08-10T08:34:17.464Z,19.72
2018-08-10T08:35:26.162Z,19.75
2018-08-10T08:36:34.750Z,19.78
2018-08-10T08:37:43.404Z,19.85
2018-08-10T08:38:52.047Z,19.9
2018-08-10T08:40:00.694Z,19.84
2018-08-10T08:41:09.760Z,19.85
2018-08-10T08:42:18.410Z,19.89
2018-08-10T08:43:27.061Z,19.96
2018-08-10T08:44:35.971Z,19.93
2018-08-10T08:45:44.800Z,20.07
2018-08-10T08:46:53.258Z,20.07
2018-08-10T08:48:01.909Z,20.03
2018-08-10T08:49:10.551Z,20.08
2018-08-10T08:50:19.207Z,20.14
2018-08-10T08:51:27.848Z,20.07
2018-08-10T08:52:36.500Z,20.02
2018-08-10T08:53:45.422Z,20.07
2018-08-10T08:54:54.079Z,19.96
2018-08-10T08:56:02.716Z,20.08
2018-08-10T08:57:11.417Z,20.03
2018-08-10T08:58:20.016Z,20.02
2018-08-10T08:59:28.674Z,19.99
2018-08-10T09:00:37.319Z,20.12
2018-08-10T09:01:45.964Z,20.07
2018-08-10T09:02:54.611Z,20.04
2018-08-10T09:04:03.260Z,20.14
2018-08-10T09:05:11.914Z,20.18
2018-08-10T09:06:20.571Z,20.15
2018-08-10T09:07:29.717Z,20.26
2018-08-10T09:08:38.630Z,20.3
2018-08-10T09:09:47.286Z,20.39
2018-08-10T09:10:55.947Z,20.46
2018-08-10T09:12:04.583Z,20.4
2018-08-10T09:13:13.232Z,20.56
2018-08-10T09:14:21.972Z,20.74
2018-08-10T09:15:30.534Z,20.75
2018-08-10T09:16:39.705Z,20.71
2018-08-10T09:17:48.352Z,20.63
2018-08-10T09:18:56.995Z,20.56
2018-08-10T09:20:05.666Z,20.5
2018-08-10T09:21:14.294Z,20.37
2018-08-10T09:22:23.207Z,20.44
2018-08-10T09:23:31.853Z,20.59
2018-08-10T09:24:40.789Z,20.66
2018-08-10T09:25:49.436Z,20.59
2018-08-10T09:26:58.217Z,20.55
2018-08-10T09:28:06.785Z,20.48
2018-08-10T09:29:15.433Z,20.32
2018-08-10T09:30:24.266Z,20.22
2018-08-10T09:31:33.081Z,20.18
2018-08-10T09:32:41.761Z,20.19
2018-08-10T09:33:50.414Z,20.19
2018-08-10T09:34:59.059Z,20.22
2018-08-10T09:36:07.713Z,20.36
2018-08-10T09:37:16.362Z,20.42
2018-08-10T09:38:25.076Z,20.53
2018-08-10T09:39:34.292Z,20.55
2018-08-10T09:40:42.940Z,20.56
2018-08-10T09:41:51.667Z,20.66
2018-08-10T09:43:00.318Z,20.58
2018-08-10T09:44:09.248Z,20.53
2018-08-10T09:45:18.656Z,20.6
2018-08-10T09:46:27.621Z,20.55
2018-08-10T09:47:36.270Z,20.66
2018-08-10T09:48:45.181Z,20.7
2018-08-10T09:49:53.824Z,20.7
2018-08-10T09:51:02.745Z,20.73
2018-08-10T09:52:11.388Z,20.7
2018-08-10T09:53:20.039Z,20.56
2018-08-10T09:54:28.681Z,20.55
2018-08-10T09:55:37.866Z,20.52
2018-08-10T09:56:46.516Z,20.5
2018-08-10T09:57:55.167Z,20.44
2018-08-10T09:59:03.821Z,20.3
2018-08-10T10:00:12.469Z,20.39
2018-08-10T10:01:21.121Z,20.24
2018-08-10T10:02:29.768Z,20.26
2018-08-10T10:03:38.415Z,20.14
2018-08-10T10:04:47.068Z,20.1
2018-08-10T10:05:55.717Z,19.94
2018-08-10T10:07:04.364Z,19.93
2018-08-10T10:08:13.009Z,20.03
2018-08-10T10:09:21.664Z,20.02
2018-08-10T10:10:30.574Z,20.12
2018-08-10T10:11:39.250Z,20.26
2018-08-10T10:12:47.867Z,20.32
2018-08-10T10:13:56.519Z,20.49
2018-08-10T10:15:05.167Z,20.53
2018-08-10T10:16:13.819Z,20.63
2018-08-10T10:17:22.513Z,20.75
2018-08-10T10:18:31.117Z,20.89
2018-08-10T10:19:39.778Z,21.2
2018-08-10T10:20:48.425Z,21.38
2018-08-10T10:21:57.082Z,21.56
2018-08-10T10:23:05.728Z,21.78
2018-08-10T10:24:14.383Z,21.97
2018-08-10T10:25:23.030Z,22.18
2018-08-10T10:26:31.684Z,22.16
2018-08-10T10:27:40.329Z,22.25
2018-08-10T10:28:49.252Z,22.33
2018-08-10T10:29:57.898Z,22.33
2018-08-10T10:31:06.550Z,22.33
2018-08-10T10:32:15.464Z,22.15
2018-08-10T10:33:24.166Z,22.14
2018-08-10T10:34:32.766Z,21.94
2018-08-10T10:35:41.683Z,21.75
2018-08-10T10:36:50.338Z,21.7
2018-08-10T10:37:58.988Z,21.56
2018-08-10T10:39:07.650Z,21.56
2018-08-10T10:40:16.295Z,21.53
2018-08-10T10:41:24.981Z,21.5
2018-08-10T10:42:33.608Z,21.6
2018-08-10T10:43:42.522Z,21.65
2018-08-10T10:44:51.162Z,21.75
2018-08-10T10:45:59.811Z,21.83
2018-08-10T10:47:08.457Z,21.84
2018-08-10T10:48:17.109Z,22.03
2018-08-10T10:49:25.754Z,22.14
2018-08-10T10:50:34.408Z,22.18
2018-08-10T10:51:43.164Z,22.18
2018-08-10T10:52:51.919Z,22.12
2018-08-10T10:54:00.831Z,22.18
2018-08-10T10:55:09.477Z,22.12
2018-08-10T10:56:18.130Z,22.07
2018-08-10T10:57:26.776Z,21.99
2018-08-10T10:58:35.704Z,21.88
2018-08-10T10:59:44.611Z,21.83
2018-08-10T11:00:53.264Z,21.84
2018-08-10T11:02:01.909Z,21.74
2018-08-10T11:03:10.567Z,21.56
2018-08-10T11:04:19.471Z,21.48
2018-08-10T11:05:28.121Z,21.38
2018-08-10T11:06:36.767Z,21.43
2018-08-10T11:07:45.700Z,21.25
2018-08-10T11:08:54.609Z,21.26
2018-08-10T11:10:03.786Z,21.23
2018-08-10T11:11:12.431Z,21.25
2018-08-10T11:12:21.355Z,21.22
2018-08-10T11:13:30.017Z,21.14
2018-08-10T11:14:38.922Z,21.15
2018-08-10T11:15:47.587Z,21.08
2018-08-10T11:16:56.485Z,20.93
2018-08-10T11:18:05.202Z,20.92
2018-08-10T11:19:14.817Z,20.89
2018-08-10T11:20:23.482Z,20.82
2018-08-10T11:21:32.388Z,20.92
2018-08-10T11:22:41.048Z,21.1
2018-08-10T11:23:49.951Z,21.28
2018-08-10T11:24:58.955Z,21.44
2018-08-10T11:26:07.551Z,21.72
2018-08-10T11:27:16.164Z,22.06
2018-08-10T11:28:24.817Z,22.16
2018-08-10T11:29:33.471Z,22.46
2018-08-10T11:30:42.123Z,22.68
2018-08-10T11:31:51.040Z,22.71
2018-08-10T11:32:59.956Z,22.88
2018-08-10T11:34:08.876Z,22.77
2018-08-10T11:35:17.537Z,22.73
2018-08-10T11:36:26.177Z,22.8
2018-08-10T11:37:34.830Z,22.8
2018-08-10T11:38:43.476Z,22.88
2018-08-10T11:39:52.141Z,22.86
2018-08-10T11:41:01.046Z,22.92
2018-08-10T11:42:09.697Z,22.89
2018-08-10T11:43:18.348Z,22.93
2018-08-10T11:44:27.004Z,22.93
2018-08-10T11:45:35.659Z,22.96
2018-08-10T11:46:44.298Z,22.92
2018-08-10T11:47:52.944Z,22.95
2018-08-10T11:49:01.594Z,22.89
2018-08-10T11:50:10.347Z,22.89
2018-08-10T11:51:18.902Z,22.86
2018-08-10T11:52:27.570Z,22.7
2018-08-10T11:53:36.545Z,22.62
2018-08-10T11:54:45.204Z,22.56
2018-08-10T11:55:53.847Z,22.7
2018-08-10T11:57:02.501Z,22.89
2018-08-10T11:58:11.139Z,23.14
2018-08-10T11:59:19.800Z,23.26
2018-08-10T12:00:28.714Z,23.4
2018-08-10T12:01:37.365Z,23.58
2018-08-10T12:02:46.008Z,23.59
2018-08-10T12:03:54.983Z,23.63
2018-08-10T12:05:03.637Z,23.59
2018-08-10T12:06:12.311Z,23.51
2018-08-10T12:07:20.942Z,23.62
2018-08-10T12:08:29.583Z,23.62
2018-08-10T12:09:38.240Z,23.64
2018-08-10T12:10:46.886Z,23.59
2018-08-10T12:11:55.545Z,23.7
2018-08-10T12:13:04.472Z,23.73
2018-08-10T12:14:13.128Z,23.86
2018-08-10T12:15:21.774Z,23.99
2018-08-10T12:16:30.432Z,24.01
2018-08-10T12:17:39.072Z,24.07
2018-08-10T12:18:47.725Z,24.18
2018-08-10T12:19:56.634Z,24.26
2018-08-10T12:21:05.295Z,24.4
2018-08-10T12:22:13.942Z,24.43
2018-08-10T12:23:22.856Z,24.5
2018-08-10T12:24:31.505Z,24.48
2018-08-10T12:25:40.156Z,24.48
2018-08-10T12:26:48.814Z,24.51
2018-08-10T12:27:57.455Z,24.47
2018-08-10T12:29:06.117Z,24.58
2018-08-10T12:30:14.795Z,24.51
2018-08-10T12:31:24.188Z,24.71
2018-08-10T12:32:32.842Z,24.75
2018-08-10T12:33:41.497Z,24.79
2018-08-10T12:34:50.409Z,24.78
2018-08-10T12:35:59.110Z,24.81
2018-08-10T12:37:07.980Z,24.78
2018-08-10T12:38:16.900Z,24.75
2018-08-10T12:39:25.551Z,24.79
2018-08-10T12:40:34.466Z,24.77
2018-08-10T12:41:43.125Z,24.63
2018-08-10T12:42:51.777Z,24.46
2018-08-10T12:44:00.691Z,24.36
2018-08-10T12:45:09.332Z,24.28
2018-08-10T12:46:17.988Z,24.18
2018-08-10T12:47:26.634Z,24.04
2018-08-10T12:48:35.560Z,23.88
2018-08-10T12:49:44.202Z,23.76
2018-08-10T12:50:52.858Z,23.77
2018-08-10T12:52:01.504Z,23.84
2018-08-10T12:53:10.162Z,23.86
2018-08-10T12:54:19.073Z,23.94
2018-08-10T12:55:27.725Z,24.1
2018-08-10T12:56:36.391Z,24.19
2018-08-10T12:57:45.294Z,24.43
2018-08-10T12:58:53.943Z,24.47
2018-08-10T13:00:02.592Z,24.55
2018-08-10T13:01:11.512Z,24.71
2018-08-10T13:02:20.176Z,24.66
2018-08-10T13:03:29.096Z,24.37
2018-08-10T13:04:37.747Z,24.34
2018-08-10T13:05:46.399Z,24.1
2018-08-10T13:06:55.050Z,23.85
2018-08-10T13:08:03.705Z,23.76
2018-08-10T13:09:12.360Z,23.64
2018-08-10T13:10:21.007Z,23.55
2018-08-10T13:11:29.931Z,23.55
2018-08-10T13:12:38.851Z,23.56
2018-08-10T13:13:47.500Z,23.55
2018-08-10T13:14:56.152Z,23.55
2018-08-10T13:16:05.074Z,23.59
2018-08-10T13:17:13.805Z,23.66
2018-08-10T13:18:22.512Z,23.76
2018-08-10T13:19:31.155Z,23.76
2018-08-10T13:20:39.803Z,23.7
2018-08-10T13:21:48.447Z,23.74
2018-08-10T13:22:57.095Z,23.76
2018-08-10T13:24:06.011Z,23.67
2018-08-10T13:25:14.668Z,23.56
2018-08-10T13:26:23.333Z,23.63
2018-08-10T13:27:31.965Z,23.55
2018-08-10T13:28:40.615Z,23.59
2018-08-10T13:29:49.271Z,23.52
2018-08-10T13:30:57.916Z,23.59
2018-08-10T13:32:06.568Z,23.63
2018-08-10T13:33:15.217Z,23.7
2018-08-10T13:34:24.143Z,23.59
2018-08-10T13:35:32.884Z,23.63
2018-08-10T13:36:41.463Z,23.55
2018-08-10T13:37:50.109Z,23.45
2018-08-10T13:38:58.758Z,23.37
2018-08-10T13:40:07.412Z,23.34
2018-08-10T13:41:16.102Z,23.2
2018-08-10T13:42:24.717Z,23.29
2018-08-10T13:43:33.431Z,23.28
2018-08-10T13:44:42.019Z,23.47
2018-08-10T13:45:50.670Z,23.66
2018-08-10T13:46:59.320Z,23.73
2018-08-10T13:48:07.965Z,23.88
2018-08-10T13:49:16.624Z,23.91
2018-08-10T13:50:25.270Z,24.06
2018-08-10T13:51:33.922Z,24.18
2018-08-10T13:52:42.568Z,24.19
2018-08-10T13:53:51.219Z,24.21
2018-08-10T13:55:00.131Z,24.18
2018-08-10T13:56:08.782Z,24.07
2018-08-10T13:57:17.433Z,24
2018-08-10T13:58:26.094Z,23.88
2018-08-10T13:59:35.003Z,23.73
2018-08-10T14:00:43.654Z,23.59
2018-08-10T14:01:52.571Z,23.56
2018-08-10T14:03:01.492Z,23.49
2018-08-10T14:04:10.143Z,23.59
2018-08-10T14:05:18.795Z,23.64
2018-08-10T14:06:27.446Z,23.74
2018-08-10T14:07:36.834Z,23.79
2018-08-10T14:08:45.490Z,23.84
2018-08-10T14:09:54.139Z,23.79
2018-08-10T14:11:02.785Z,23.76
2018-08-10T14:12:11.708Z,23.7
2018-08-10T14:13:20.362Z,23.67
2018-08-10T14:14:29.010Z,23.52
2018-08-10T14:15:37.663Z,23.62
2018-08-10T14:16:46.311Z,23.49
2018-08-10T14:17:55.228Z,23.45
2018-08-10T14:19:03.876Z,23.45
2018-08-10T14:20:12.531Z,23.48
2018-08-10T14:21:21.448Z,23.54
2018-08-10T14:22:30.099Z,23.55
2018-08-10T14:23:38.742Z,23.55
2018-08-10T14:24:47.397Z,23.56
2018-08-10T14:25:56.041Z,23.51
2018-08-10T14:27:04.958Z,23.52
2018-08-10T14:28:13.604Z,23.51
2018-08-10T14:29:22.259Z,23.47
2018-08-10T14:30:30.904Z,23.64
2018-08-10T14:31:39.555Z,23.66
2018-08-10T14:32:48.202Z,23.73
2018-08-10T14:33:56.848Z,23.67
2018-08-10T14:35:05.506Z,23.66
2018-08-10T14:36:14.158Z,23.63
2018-08-10T14:37:22.807Z,23.55
2018-08-10T14:38:31.718Z,23.55
2018-08-10T14:39:40.373Z,23.49
2018-08-10T14:40:49.021Z,23.42
2018-08-10T14:41:57.930Z,23.42
2018-08-10T14:43:07.107Z,23.32
2018-08-10T14:44:16.021Z,23.29
2018-08-10T14:45:25.205Z,23.29
2018-08-10T14:46:34.118Z,23.37
2018-08-10T14:47:42.762Z,23.44